Rominger, North Carolina
Current Conditions -  °F | °C
As of 11:55 AM on Wednesday 22 Oct 2014 (Local Time) from KTNB Reporting Station
Scattered Clouds Scattered Clouds  
Wind Chill: 38°   Ceiling: Unl
Heat Index: 46°   Visibility: 10mi
Dew Point: 34°   Wind: 18mph
Humidity: 63%   Direction: 300°WNW
Pressure: 30.13"   Gusts: 24mph
Location:  36.1797°N, 81.8424°W
Report Text: KTNB 221555Z AUTO 30016G21KT 10SM SCT022 08/01 A3013 RMK AO2 T00760010
Loading
Personal Weather Stations






























Interactive Weather Map
Tropical Storm Tracking
New forecast layout! Learn more

10-Day Weather Forecast

Advertisements
Track Severe Weather on mobile